sensor_id;sensor_type;location;lat;lon;timestamp;pressure;altitude;pressure_sealevel;temperature
41940;BMP180;23057;48.554;14.454;2022-12-18T00:01:58;94710.00;;;-2.30
41940;BMP180;23057;48.554;14.454;2022-12-18T00:04:30;94715.00;;;-2.30
41940;BMP180;23057;48.554;14.454;2022-12-18T00:07:01;94715.00;;;-2.30
41940;BMP180;23057;48.554;14.454;2022-12-18T00:09:32;94716.00;;;-2.40
41940;BMP180;23057;48.554;14.454;2022-12-18T00:12:03;94721.00;;;-2.50
41940;BMP180;23057;48.554;14.454;2022-12-18T00:14:34;94726.00;;;-2.50
41940;BMP180;23057;48.554;14.454;2022-12-18T00:17:05;94718.00;;;-2.50
41940;BMP180;23057;48.554;14.454;2022-12-18T00:19:36;94720.00;;;-2.40
41940;BMP180;23057;48.554;14.454;2022-12-18T00:22:06;94725.00;;;-2.50
41940;BMP180;23057;48.554;14.454;2022-12-18T00:24:37;94733.00;;;-2.60
41940;BMP180;23057;48.554;14.454;2022-12-18T00:27:08;94730.00;;;-2.70
41940;BMP180;23057;48.554;14.454;2022-12-18T00:29:39;94731.00;;;-2.80
41940;BMP180;23057;48.554;14.454;2022-12-18T00:32:10;94730.00;;;-2.80
41940;BMP180;23057;48.554;14.454;2022-12-18T00:34:40;94728.00;;;-2.80
41940;BMP180;23057;48.554;14.454;2022-12-18T00:37:11;94738.00;;;-2.80
41940;BMP180;23057;48.554;14.454;2022-12-18T00:39:42;94733.00;;;-2.80
41940;BMP180;23057;48.554;14.454;2022-12-18T00:42:13;94744.00;;;-2.90
41940;BMP180;23057;48.554;14.454;2022-12-18T00:45:02;94755.00;;;-2.90
41940;BMP180;23057;48.554;14.454;2022-12-18T00:47:33;94751.00;;;-2.90
41940;BMP180;23057;48.554;14.454;2022-12-18T00:50:05;94753.00;;;-2.90
41940;BMP180;23057;48.554;14.454;2022-12-18T00:52:36;94752.00;;;-2.90
41940;BMP180;23057;48.554;14.454;2022-12-18T00:55:08;94760.00;;;-2.90
41940;BMP180;23057;48.554;14.454;2022-12-18T00:57:40;94767.00;;;-2.90
41940;BMP180;23057;48.554;14.454;2022-12-18T01:00:14;94751.00;;;-2.90
41940;BMP180;23057;48.554;14.454;2022-12-18T01:02:45;94759.00;;;-2.90
41940;BMP180;23057;48.554;14.454;2022-12-18T01:05:16;94768.00;;;-2.90
41940;BMP180;23057;48.554;14.454;2022-12-18T01:07:47;94768.00;;;-3.00
41940;BMP180;23057;48.554;14.454;2022-12-18T01:10:18;94767.00;;;-3.10
41940;BMP180;23057;48.554;14.454;2022-12-18T01:12:50;94770.00;;;-3.10
41940;BMP180;23057;48.554;14.454;2022-12-18T01:15:21;94774.00;;;-3.20
41940;BMP180;23057;48.554;14.454;2022-12-18T01:17:53;94782.00;;;-3.20
41940;BMP180;23057;48.554;14.454;2022-12-18T01:20:24;94789.00;;;-3.20
41940;BMP180;23057;48.554;14.454;2022-12-18T01:22:54;94788.00;;;-3.20
41940;BMP180;23057;48.554;14.454;2022-12-18T01:25:25;94784.00;;;-3.20
41940;BMP180;23057;48.554;14.454;2022-12-18T01:27:56;94783.00;;;-3.10
41940;BMP180;23057;48.554;14.454;2022-12-18T01:30:27;94789.00;;;-3.10
41940;BMP180;23057;48.554;14.454;2022-12-18T01:32:58;94775.00;;;-3.10
41940;BMP180;23057;48.554;14.454;2022-12-18T01:35:29;94776.00;;;-3.10
41940;BMP180;23057;48.554;14.454;2022-12-18T01:37:59;94789.00;;;-3.10
41940;BMP180;23057;48.554;14.454;2022-12-18T01:40:30;94787.00;;;-3.20
41940;BMP180;23057;48.554;14.454;2022-12-18T01:43:01;94776.00;;;-3.30
41940;BMP180;23057;48.554;14.454;2022-12-18T01:45:32;94786.00;;;-3.40
41940;BMP180;23057;48.554;14.454;2022-12-18T01:48:08;94791.00;;;-3.40
41940;BMP180;23057;48.554;14.454;2022-12-18T01:50:42;94784.00;;;-3.50
41940;BMP180;23057;48.554;14.454;2022-12-18T01:53:19;94783.00;;;-3.60
41940;BMP180;23057;48.554;14.454;2022-12-18T01:55:56;94795.00;;;-3.70
41940;BMP180;23057;48.554;14.454;2022-12-18T01:59:10;94793.00;;;-3.70
41940;BMP180;23057;48.554;14.454;2022-12-18T02:01:42;94790.00;;;-3.80
41940;BMP180;23057;48.554;14.454;2022-12-18T02:04:21;94787.00;;;-3.80
41940;BMP180;23057;48.554;14.454;2022-12-18T02:09:51;94789.00;;;-3.90
41940;BMP180;23057;48.554;14.454;2022-12-18T02:18:55;94784.00;;;-4.20
41940;BMP180;23057;48.554;14.454;2022-12-18T02:22:11;94792.00;;;-4.30
41940;BMP180;23057;48.554;14.454;2022-12-18T02:25:40;94780.00;;;-4.40
41940;BMP180;23057;48.554;14.454;2022-12-18T02:28:41;94791.00;;;-4.40
41940;BMP180;23057;48.554;14.454;2022-12-18T02:31:25;94794.00;;;-4.50
41940;BMP180;23057;48.554;14.454;2022-12-18T02:34:02;94789.00;;;-4.50
41940;BMP180;23057;48.554;14.454;2022-12-18T02:36:38;94797.00;;;-4.60
41940;BMP180;23057;48.554;14.454;2022-12-18T02:39:13;94798.00;;;-4.60
41940;BMP180;23057;48.554;14.454;2022-12-18T02:41:47;94796.00;;;-4.60
41940;BMP180;23057;48.554;14.454;2022-12-18T02:44:19;94795.00;;;-4.70
41940;BMP180;23057;48.554;14.454;2022-12-18T02:46:52;94805.00;;;-4.70
41940;BMP180;23057;48.554;14.454;2022-12-18T03:01:36;94788.00;;;-4.90
41940;BMP180;23057;48.554;14.454;2022-12-18T03:07:42;94804.00;;;-4.90
41940;BMP180;23057;48.554;14.454;2022-12-18T03:10:21;94809.00;;;-4.90
41940;BMP180;23057;48.554;14.454;2022-12-18T03:13:06;94804.00;;;-5.00
41940;BMP180;23057;48.554;14.454;2022-12-18T03:15:48;94797.00;;;-5.00
41940;BMP180;23057;48.554;14.454;2022-12-18T03:18:34;94796.00;;;-5.00
41940;BMP180;23057;48.554;14.454;2022-12-18T03:21:11;94797.00;;;-5.10
41940;BMP180;23057;48.554;14.454;2022-12-18T03:23:49;94799.00;;;-5.00
41940;BMP180;23057;48.554;14.454;2022-12-18T03:26:26;94792.00;;;-5.00
41940;BMP180;23057;48.554;14.454;2022-12-18T03:29:08;94794.00;;;-5.00
41940;BMP180;23057;48.554;14.454;2022-12-18T03:31:53;94791.00;;;-5.10
41940;BMP180;23057;48.554;14.454;2022-12-18T03:34:34;94797.00;;;-5.10
41940;BMP180;23057;48.554;14.454;2022-12-18T03:37:09;94805.00;;;-5.10
41940;BMP180;23057;48.554;14.454;2022-12-18T03:39:40;94804.00;;;-5.10
41940;BMP180;23057;48.554;14.454;2022-12-18T03:45:42;94801.00;;;-5.20
41940;BMP180;23057;48.554;14.454;2022-12-18T03:48:42;94790.00;;;-5.10
41940;BMP180;23057;48.554;14.454;2022-12-18T03:51:52;94800.00;;;-5.10
41940;BMP180;23057;48.554;14.454;2022-12-18T03:54:29;94805.00;;;-5.10
41940;BMP180;23057;48.554;14.454;2022-12-18T03:57:17;94804.00;;;-5.10
41940;BMP180;23057;48.554;14.454;2022-12-18T03:59:58;94798.00;;;-5.10
41940;BMP180;23057;48.554;14.454;2022-12-18T04:02:34;94802.00;;;-5.20
41940;BMP180;23057;48.554;14.454;2022-12-18T04:05:10;94807.00;;;-5.30
41940;BMP180;23057;48.554;14.454;2022-12-18T04:07:46;94798.00;;;-5.30
41940;BMP180;23057;48.554;14.454;2022-12-18T04:10:19;94805.00;;;-5.30
41940;BMP180;23057;48.554;14.454;2022-12-18T04:12:50;94801.00;;;-5.30
41940;BMP180;23057;48.554;14.454;2022-12-18T04:15:21;94804.00;;;-5.30
41940;BMP180;23057;48.554;14.454;2022-12-18T04:17:52;94804.00;;;-5.40
41940;BMP180;23057;48.554;14.454;2022-12-18T04:20:23;94813.00;;;-5.40
41940;BMP180;23057;48.554;14.454;2022-12-18T04:22:53;94810.00;;;-5.40
41940;BMP180;23057;48.554;14.454;2022-12-18T04:25:24;94810.00;;;-5.40
41940;BMP180;23057;48.554;14.454;2022-12-18T04:27:55;94820.00;;;-5.40
41940;BMP180;23057;48.554;14.454;2022-12-18T04:30:26;94831.00;;;-5.40
41940;BMP180;23057;48.554;14.454;2022-12-18T04:32:57;94838.00;;;-5.30
41940;BMP180;23057;48.554;14.454;2022-12-18T04:35:27;94834.00;;;-5.40
41940;BMP180;23057;48.554;14.454;2022-12-18T04:37:58;94826.00;;;-5.50
41940;BMP180;23057;48.554;14.454;2022-12-18T04:40:29;94832.00;;;-5.50
41940;BMP180;23057;48.554;14.454;2022-12-18T04:43:00;94838.00;;;-5.60
41940;BMP180;23057;48.554;14.454;2022-12-18T04:45:31;94829.00;;;-5.50
41940;BMP180;23057;48.554;14.454;2022-12-18T04:48:03;94840.00;;;-5.50
41940;BMP180;23057;48.554;14.454;2022-12-18T04:50:35;94834.00;;;-5.40
41940;BMP180;23057;48.554;14.454;2022-12-18T04:53:05;94836.00;;;-5.40
41940;BMP180;23057;48.554;14.454;2022-12-18T04:55:36;94836.00;;;-5.40
41940;BMP180;23057;48.554;14.454;2022-12-18T04:58:07;94830.00;;;-5.40
41940;BMP180;23057;48.554;14.454;2022-12-18T05:00:38;94835.00;;;-5.40
41940;BMP180;23057;48.554;14.454;2022-12-18T05:03:09;94848.00;;;-5.40
41940;BMP180;23057;48.554;14.454;2022-12-18T05:05:39;94839.00;;;-5.40
41940;BMP180;23057;48.554;14.454;2022-12-18T05:08:10;94840.00;;;-5.30
41940;BMP180;23057;48.554;14.454;2022-12-18T05:10:41;94837.00;;;-5.30
41940;BMP180;23057;48.554;14.454;2022-12-18T05:13:12;94833.00;;;-5.20
41940;BMP180;23057;48.554;14.454;2022-12-18T05:15:52;94834.00;;;-5.20
41940;BMP180;23057;48.554;14.454;2022-12-18T05:18:24;94841.00;;;-5.20
41940;BMP180;23057;48.554;14.454;2022-12-18T05:20:55;94857.00;;;-5.20
41940;BMP180;23057;48.554;14.454;2022-12-18T05:23:27;94849.00;;;-5.30
41940;BMP180;23057;48.554;14.454;2022-12-18T05:26:05;94859.00;;;-5.30
41940;BMP180;23057;48.554;14.454;2022-12-18T05:28:37;94874.00;;;-5.30
41940;BMP180;23057;48.554;14.454;2022-12-18T05:31:07;94870.00;;;-5.40
41940;BMP180;23057;48.554;14.454;2022-12-18T05:33:38;94851.00;;;-5.50
41940;BMP180;23057;48.554;14.454;2022-12-18T05:36:10;94862.00;;;-5.50
41940;BMP180;23057;48.554;14.454;2022-12-18T05:38:42;94864.00;;;-5.60
41940;BMP180;23057;48.554;14.454;2022-12-18T05:41:13;94860.00;;;-5.60
41940;BMP180;23057;48.554;14.454;2022-12-18T05:43:43;94872.00;;;-5.60
41940;BMP180;23057;48.554;14.454;2022-12-18T05:46:17;94872.00;;;-5.50
41940;BMP180;23057;48.554;14.454;2022-12-18T05:48:48;94862.00;;;-5.60
41940;BMP180;23057;48.554;14.454;2022-12-18T05:51:22;94859.00;;;-5.70
41940;BMP180;23057;48.554;14.454;2022-12-18T05:53:53;94862.00;;;-5.70
41940;BMP180;23057;48.554;14.454;2022-12-18T05:56:24;94872.00;;;-5.60
41940;BMP180;23057;48.554;14.454;2022-12-18T05:58:55;94887.00;;;-5.50
41940;BMP180;23057;48.554;14.454;2022-12-18T06:01:26;94893.00;;;-5.50
41940;BMP180;23057;48.554;14.454;2022-12-18T06:03:57;94887.00;;;-5.50
41940;BMP180;23057;48.554;14.454;2022-12-18T06:06:28;94886.00;;;-5.50
41940;BMP180;23057;48.554;14.454;2022-12-18T06:08:59;94886.00;;;-5.40
41940;BMP180;23057;48.554;14.454;2022-12-18T06:11:31;94893.00;;;-5.40
41940;BMP180;23057;48.554;14.454;2022-12-18T06:14:04;94893.00;;;-5.40
41940;BMP180;23057;48.554;14.454;2022-12-18T06:16:36;94898.00;;;-5.40
41940;BMP180;23057;48.554;14.454;2022-12-18T06:19:07;94902.00;;;-5.40
41940;BMP180;23057;48.554;14.454;2022-12-18T06:21:38;94902.00;;;-5.50
41940;BMP180;23057;48.554;14.454;2022-12-18T06:24:09;94894.00;;;-5.70
41940;BMP180;23057;48.554;14.454;2022-12-18T06:26:40;94902.00;;;-5.80
41940;BMP180;23057;48.554;14.454;2022-12-18T06:29:11;94899.00;;;-5.90
41940;BMP180;23057;48.554;14.454;2022-12-18T06:31:42;94898.00;;;-5.90
41940;BMP180;23057;48.554;14.454;2022-12-18T06:34:13;94897.00;;;-6.00
41940;BMP180;23057;48.554;14.454;2022-12-18T06:36:44;94904.00;;;-6.10
41940;BMP180;23057;48.554;14.454;2022-12-18T06:39:14;94883.00;;;-6.10
41940;BMP180;23057;48.554;14.454;2022-12-18T06:41:45;94893.00;;;-6.00
41940;BMP180;23057;48.554;14.454;2022-12-18T06:44:16;94901.00;;;-6.00
41940;BMP180;23057;48.554;14.454;2022-12-18T06:46:47;94900.00;;;-5.90
41940;BMP180;23057;48.554;14.454;2022-12-18T06:49:18;94904.00;;;-5.90
41940;BMP180;23057;48.554;14.454;2022-12-18T06:51:49;94911.00;;;-5.90
41940;BMP180;23057;48.554;14.454;2022-12-18T06:54:20;94916.00;;;-5.90
41940;BMP180;23057;48.554;14.454;2022-12-18T06:56:51;94919.00;;;-5.90
41940;BMP180;23057;48.554;14.454;2022-12-18T06:59:21;94930.00;;;-5.90
41940;BMP180;23057;48.554;14.454;2022-12-18T07:01:52;94927.00;;;-5.90
41940;BMP180;23057;48.554;14.454;2022-12-18T07:04:30;94934.00;;;-5.90
41940;BMP180;23057;48.554;14.454;2022-12-18T07:07:02;94933.00;;;-5.90
41940;BMP180;23057;48.554;14.454;2022-12-18T07:09:33;94938.00;;;-5.90
41940;BMP180;23057;48.554;14.454;2022-12-18T07:12:04;94946.00;;;-5.90
41940;BMP180;23057;48.554;14.454;2022-12-18T07:14:35;94946.00;;;-5.90
41940;BMP180;23057;48.554;14.454;2022-12-18T07:17:06;94947.00;;;-5.90
41940;BMP180;23057;48.554;14.454;2022-12-18T07:19:37;94948.00;;;-5.90
41940;BMP180;23057;48.554;14.454;2022-12-18T07:22:07;94947.00;;;-5.80
41940;BMP180;23057;48.554;14.454;2022-12-18T07:24:38;94936.00;;;-5.70
41940;BMP180;23057;48.554;14.454;2022-12-18T07:27:09;94948.00;;;-5.60
41940;BMP180;23057;48.554;14.454;2022-12-18T07:29:40;94946.00;;;-5.60
41940;BMP180;23057;48.554;14.454;2022-12-18T07:32:11;94959.00;;;-5.70
41940;BMP180;23057;48.554;14.454;2022-12-18T07:34:42;94945.00;;;-5.60
41940;BMP180;23057;48.554;14.454;2022-12-18T07:37:12;94950.00;;;-5.60
41940;BMP180;23057;48.554;14.454;2022-12-18T07:39:43;94947.00;;;-5.50
41940;BMP180;23057;48.554;14.454;2022-12-18T07:42:14;94942.00;;;-5.50
41940;BMP180;23057;48.554;14.454;2022-12-18T07:45:02;94938.00;;;-5.60
41940;BMP180;23057;48.554;14.454;2022-12-18T07:47:36;94946.00;;;-5.50
41940;BMP180;23057;48.554;14.454;2022-12-18T07:50:07;94954.00;;;-5.50
41940;BMP180;23057;48.554;14.454;2022-12-18T07:52:39;94951.00;;;-5.50
41940;BMP180;23057;48.554;14.454;2022-12-18T07:55:10;94957.00;;;-5.40
41940;BMP180;23057;48.554;14.454;2022-12-18T07:57:40;94948.00;;;-5.40
41940;BMP180;23057;48.554;14.454;2022-12-18T08:00:12;94955.00;;;-5.50
41940;BMP180;23057;48.554;14.454;2022-12-18T08:02:43;94960.00;;;-5.50
41940;BMP180;23057;48.554;14.454;2022-12-18T08:05:14;94962.00;;;-5.50
41940;BMP180;23057;48.554;14.454;2022-12-18T08:07:45;94960.00;;;-5.50
41940;BMP180;23057;48.554;14.454;2022-12-18T08:10:17;94965.00;;;-5.40
41940;BMP180;23057;48.554;14.454;2022-12-18T08:12:51;94965.00;;;-5.30
41940;BMP180;23057;48.554;14.454;2022-12-18T08:15:22;94954.00;;;-5.20
41940;BMP180;23057;48.554;14.454;2022-12-18T08:17:57;94957.00;;;-5.10
41940;BMP180;23057;48.554;14.454;2022-12-18T08:20:27;94956.00;;;-5.00
41940;BMP180;23057;48.554;14.454;2022-12-18T08:22:58;94953.00;;;-4.90
41940;BMP180;23057;48.554;14.454;2022-12-18T08:25:29;94971.00;;;-4.80
41940;BMP180;23057;48.554;14.454;2022-12-18T08:28:00;94968.00;;;-4.70
41940;BMP180;23057;48.554;14.454;2022-12-18T08:30:31;94976.00;;;-4.70
41940;BMP180;23057;48.554;14.454;2022-12-18T08:33:02;94980.00;;;-4.70
41940;BMP180;23057;48.554;14.454;2022-12-18T08:35:36;94972.00;;;-4.70
41940;BMP180;23057;48.554;14.454;2022-12-18T08:38:07;94981.00;;;-4.60
41940;BMP180;23057;48.554;14.454;2022-12-18T08:40:38;94971.00;;;-4.50
41940;BMP180;23057;48.554;14.454;2022-12-18T08:43:10;94970.00;;;-4.40
41940;BMP180;23057;48.554;14.454;2022-12-18T08:46:06;94970.00;;;-4.30
41940;BMP180;23057;48.554;14.454;2022-12-18T08:48:40;94971.00;;;-4.20
41940;BMP180;23057;48.554;14.454;2022-12-18T08:51:11;94971.00;;;-4.00
41940;BMP180;23057;48.554;14.454;2022-12-18T08:53:42;94983.00;;;-3.80
41940;BMP180;23057;48.554;14.454;2022-12-18T08:56:14;94973.00;;;-3.70
41940;BMP180;23057;48.554;14.454;2022-12-18T08:58:46;94973.00;;;-3.70
41940;BMP180;23057;48.554;14.454;2022-12-18T09:01:17;94972.00;;;-3.70
41940;BMP180;23057;48.554;14.454;2022-12-18T09:03:49;94977.00;;;-3.70
41940;BMP180;23057;48.554;14.454;2022-12-18T09:06:22;94977.00;;;-3.70
41940;BMP180;23057;48.554;14.454;2022-12-18T09:08:53;94973.00;;;-3.70
41940;BMP180;23057;48.554;14.454;2022-12-18T09:11:27;94969.00;;;-3.70
41940;BMP180;23057;48.554;14.454;2022-12-18T09:14:00;94974.00;;;-3.60
41940;BMP180;23057;48.554;14.454;2022-12-18T09:16:33;94979.00;;;-3.60
41940;BMP180;23057;48.554;14.454;2022-12-18T09:19:05;94980.00;;;-3.60
41940;BMP180;23057;48.554;14.454;2022-12-18T09:21:36;94978.00;;;-3.60
41940;BMP180;23057;48.554;14.454;2022-12-18T09:24:13;94980.00;;;-3.50
41940;BMP180;23057;48.554;14.454;2022-12-18T09:26:44;94977.00;;;-3.50
41940;BMP180;23057;48.554;14.454;2022-12-18T09:29:15;94972.00;;;-3.40
41940;BMP180;23057;48.554;14.454;2022-12-18T09:31:46;94972.00;;;-3.30
41940;BMP180;23057;48.554;14.454;2022-12-18T09:34:17;94971.00;;;-3.30
41940;BMP180;23057;48.554;14.454;2022-12-18T09:36:48;94969.00;;;-3.30
41940;BMP180;23057;48.554;14.454;2022-12-18T09:39:20;94976.00;;;-3.20
41940;BMP180;23057;48.554;14.454;2022-12-18T09:41:57;94967.00;;;-3.20
41940;BMP180;23057;48.554;14.454;2022-12-18T09:47:36;94963.00;;;-3.10
41940;BMP180;23057;48.554;14.454;2022-12-18T09:50:34;94970.00;;;-3.20
41940;BMP180;23057;48.554;14.454;2022-12-18T09:53:28;94965.00;;;-3.30
41940;BMP180;23057;48.554;14.454;2022-12-18T09:56:05;94971.00;;;-3.20
41940;BMP180;23057;48.554;14.454;2022-12-18T09:58:58;94978.00;;;-3.20
41940;BMP180;23057;48.554;14.454;2022-12-18T10:01:32;94968.00;;;-3.20
41940;BMP180;23057;48.554;14.454;2022-12-18T10:04:07;94973.00;;;-3.20
41940;BMP180;23057;48.554;14.454;2022-12-18T10:07:15;94955.00;;;-3.10
41940;BMP180;23057;48.554;14.454;2022-12-18T10:10:25;94948.00;;;-3.10
41940;BMP180;23057;48.554;14.454;2022-12-18T10:16:31;94940.00;;;-2.80
41940;BMP180;23057;48.554;14.454;2022-12-18T10:19:41;94956.00;;;-2.60
41940;BMP180;23057;48.554;14.454;2022-12-18T10:25:22;94945.00;;;-2.30
41940;BMP180;23057;48.554;14.454;2022-12-18T10:28:14;94945.00;;;-2.10
41940;BMP180;23057;48.554;14.454;2022-12-18T10:30:46;94941.00;;;-2.10
41940;BMP180;23057;48.554;14.454;2022-12-18T10:33:21;94946.00;;;-1.90
41940;BMP180;23057;48.554;14.454;2022-12-18T10:35:55;94952.00;;;-1.80
41940;BMP180;23057;48.554;14.454;2022-12-18T10:38:28;94940.00;;;-1.70
41940;BMP180;23057;48.554;14.454;2022-12-18T10:41:08;94940.00;;;-1.50
41940;BMP180;23057;48.554;14.454;2022-12-18T10:44:18;94933.00;;;-1.40
41940;BMP180;23057;48.554;14.454;2022-12-18T10:46:55;94933.00;;;-1.30
41940;BMP180;23057;48.554;14.454;2022-12-18T10:49:35;94937.00;;;-1.20
41940;BMP180;23057;48.554;14.454;2022-12-18T10:52:22;94916.00;;;-1.00
41940;BMP180;23057;48.554;14.454;2022-12-18T10:54:59;94904.00;;;-0.90
41940;BMP180;23057;48.554;14.454;2022-12-18T10:57:38;94923.00;;;-0.80
41940;BMP180;23057;48.554;14.454;2022-12-18T11:00:24;94926.00;;;-0.70
41940;BMP180;23057;48.554;14.454;2022-12-18T11:02:59;94916.00;;;-0.60
41940;BMP180;23057;48.554;14.454;2022-12-18T11:05:33;94924.00;;;-0.40
41940;BMP180;23057;48.554;14.454;2022-12-18T11:08:04;94922.00;;;-0.20
41940;BMP180;23057;48.554;14.454;2022-12-18T11:10:39;94918.00;;;0.00
41940;BMP180;23057;48.554;14.454;2022-12-18T11:13:19;94933.00;;;0.20
41940;BMP180;23057;48.554;14.454;2022-12-18T11:15:52;94917.00;;;0.30
41940;BMP180;23057;48.554;14.454;2022-12-18T11:18:34;94916.00;;;0.40
41940;BMP180;23057;48.554;14.454;2022-12-18T11:21:09;94910.00;;;0.50
41940;BMP180;23057;48.554;14.454;2022-12-18T11:23:53;94899.00;;;0.60
41940;BMP180;23057;48.554;14.454;2022-12-18T11:26:34;94897.00;;;0.80
41940;BMP180;23057;48.554;14.454;2022-12-18T11:29:18;94903.00;;;0.90
41940;BMP180;23057;48.554;14.454;2022-12-18T11:32:31;94900.00;;;0.90
41940;BMP180;23057;48.554;14.454;2022-12-18T11:35:21;94904.00;;;1.00
41940;BMP180;23057;48.554;14.454;2022-12-18T11:41:26;94894.00;;;1.20
41940;BMP180;23057;48.554;14.454;2022-12-18T11:44:40;94889.00;;;1.30
41940;BMP180;23057;48.554;14.454;2022-12-18T11:47:27;94894.00;;;1.30
41940;BMP180;23057;48.554;14.454;2022-12-18T11:50:20;94896.00;;;1.40
41940;BMP180;23057;48.554;14.454;2022-12-18T11:52:54;94888.00;;;1.50
41940;BMP180;23057;48.554;14.454;2022-12-18T11:56:06;94891.00;;;1.60
41940;BMP180;23057;48.554;14.454;2022-12-18T12:15:10;94885.00;;;2.00
41940;BMP180;23057;48.554;14.454;2022-12-18T12:18:11;94880.00;;;2.00
41940;BMP180;23057;48.554;14.454;2022-12-18T12:24:04;94866.00;;;2.30
41940;BMP180;23057;48.554;14.454;2022-12-18T12:36:13;94863.00;;;2.80
41940;BMP180;23057;48.554;14.454;2022-12-18T12:38:49;94864.00;;;2.90
41940;BMP180;23057;48.554;14.454;2022-12-18T12:41:31;94867.00;;;2.90
41940;BMP180;23057;48.554;14.454;2022-12-18T12:44:33;94872.00;;;2.90
41940;BMP180;23057;48.554;14.454;2022-12-18T12:47:36;94878.00;;;3.00
41940;BMP180;23057;48.554;14.454;2022-12-18T12:50:18;94879.00;;;2.90
41940;BMP180;23057;48.554;14.454;2022-12-18T12:52:55;94882.00;;;3.00
41940;BMP180;23057;48.554;14.454;2022-12-18T12:55:29;94892.00;;;3.00
41940;BMP180;23057;48.554;14.454;2022-12-18T12:58:27;94896.00;;;3.00
41940;BMP180;23057;48.554;14.454;2022-12-18T13:01:20;94905.00;;;3.00
41940;BMP180;23057;48.554;14.454;2022-12-18T13:04:11;94901.00;;;3.00
41940;BMP180;23057;48.554;14.454;2022-12-18T13:07:12;94908.00;;;3.10
41940;BMP180;23057;48.554;14.454;2022-12-18T13:15:43;94907.00;;;3.20
41940;BMP180;23057;48.554;14.454;2022-12-18T13:18:22;94919.00;;;3.30
41940;BMP180;23057;48.554;14.454;2022-12-18T13:23:34;94931.00;;;3.40
41940;BMP180;23057;48.554;14.454;2022-12-18T13:36:55;94928.00;;;3.80
41940;BMP180;23057;48.554;14.454;2022-12-18T13:39:34;94929.00;;;3.80
41940;BMP180;23057;48.554;14.454;2022-12-18T13:44:39;94935.00;;;4.00
41940;BMP180;23057;48.554;14.454;2022-12-18T13:47:37;94925.00;;;4.10
41940;BMP180;23057;48.554;14.454;2022-12-18T13:50:26;94926.00;;;4.10
41940;BMP180;23057;48.554;14.454;2022-12-18T13:52:58;94920.00;;;4.10
41940;BMP180;23057;48.554;14.454;2022-12-18T13:55:29;94922.00;;;4.00
41940;BMP180;23057;48.554;14.454;2022-12-18T13:58:06;94924.00;;;4.00
41940;BMP180;23057;48.554;14.454;2022-12-18T14:00:42;94918.00;;;4.00
41940;BMP180;23057;48.554;14.454;2022-12-18T14:03:27;94920.00;;;4.00
41940;BMP180;23057;48.554;14.454;2022-12-18T14:06:04;94912.00;;;3.90
41940;BMP180;23057;48.554;14.454;2022-12-18T14:08:41;94910.00;;;3.70
41940;BMP180;23057;48.554;14.454;2022-12-18T14:11:21;94908.00;;;3.40
41940;BMP180;23057;48.554;14.454;2022-12-18T14:13:53;94903.00;;;3.30
41940;BMP180;23057;48.554;14.454;2022-12-18T14:16:24;94905.00;;;3.30
41940;BMP180;23057;48.554;14.454;2022-12-18T14:18:57;94904.00;;;3.40
41940;BMP180;23057;48.554;14.454;2022-12-18T14:21:30;94912.00;;;3.40
41940;BMP180;23057;48.554;14.454;2022-12-18T14:26:50;94896.00;;;3.30
41940;BMP180;23057;48.554;14.454;2022-12-18T14:29:26;94909.00;;;3.20
41940;BMP180;23057;48.554;14.454;2022-12-18T14:32:14;94917.00;;;3.20
41940;BMP180;23057;48.554;14.454;2022-12-18T14:34:52;94914.00;;;3.10
41940;BMP180;23057;48.554;14.454;2022-12-18T14:37:26;94918.00;;;3.20
41940;BMP180;23057;48.554;14.454;2022-12-18T14:40:00;94928.00;;;3.20
41940;BMP180;23057;48.554;14.454;2022-12-18T14:42:33;94940.00;;;3.10
41940;BMP180;23057;48.554;14.454;2022-12-18T14:45:33;94938.00;;;3.00
41940;BMP180;23057;48.554;14.454;2022-12-18T14:48:21;94940.00;;;2.80
41940;BMP180;23057;48.554;14.454;2022-12-18T14:51:18;94939.00;;;2.70
41940;BMP180;23057;48.554;14.454;2022-12-18T14:54:04;94939.00;;;2.50
41940;BMP180;23057;48.554;14.454;2022-12-18T14:56:48;94931.00;;;2.40
41940;BMP180;23057;48.554;14.454;2022-12-18T14:59:26;94942.00;;;2.30
41940;BMP180;23057;48.554;14.454;2022-12-18T15:02:14;94950.00;;;2.20
41940;BMP180;23057;48.554;14.454;2022-12-18T15:08:00;94952.00;;;1.90
41940;BMP180;23057;48.554;14.454;2022-12-18T15:10:34;94948.00;;;1.70
41940;BMP180;23057;48.554;14.454;2022-12-18T15:20:57;94951.00;;;1.20
41940;BMP180;23057;48.554;14.454;2022-12-18T15:23:52;94951.00;;;1.20
41940;BMP180;23057;48.554;14.454;2022-12-18T15:26:23;94951.00;;;1.20
41940;BMP180;23057;48.554;14.454;2022-12-18T15:28:56;94962.00;;;1.20
41940;BMP180;23057;48.554;14.454;2022-12-18T15:31:36;94958.00;;;1.20
41940;BMP180;23057;48.554;14.454;2022-12-18T15:34:23;94965.00;;;1.20
41940;BMP180;23057;48.554;14.454;2022-12-18T15:36:54;94962.00;;;1.10
41940;BMP180;23057;48.554;14.454;2022-12-18T15:39:25;94959.00;;;1.00
41940;BMP180;23057;48.554;14.454;2022-12-18T15:41:56;94953.00;;;0.90
41940;BMP180;23057;48.554;14.454;2022-12-18T15:44:46;94960.00;;;0.90
41940;BMP180;23057;48.554;14.454;2022-12-18T15:47:16;94953.00;;;0.80
41940;BMP180;23057;48.554;14.454;2022-12-18T15:49:47;94950.00;;;0.70
41940;BMP180;23057;48.554;14.454;2022-12-18T15:52:18;94955.00;;;0.60
41940;BMP180;23057;48.554;14.454;2022-12-18T15:54:56;94956.00;;;0.60
41940;BMP180;23057;48.554;14.454;2022-12-18T15:57:45;94948.00;;;0.60
41940;BMP180;23057;48.554;14.454;2022-12-18T16:00:17;94938.00;;;0.60
41940;BMP180;23057;48.554;14.454;2022-12-18T16:02:48;94930.00;;;0.50
41940;BMP180;23057;48.554;14.454;2022-12-18T16:05:20;94931.00;;;0.50
41940;BMP180;23057;48.554;14.454;2022-12-18T16:07:52;94934.00;;;0.50
41940;BMP180;23057;48.554;14.454;2022-12-18T16:10:24;94937.00;;;0.50
41940;BMP180;23057;48.554;14.454;2022-12-18T16:12:56;94942.00;;;0.50
41940;BMP180;23057;48.554;14.454;2022-12-18T16:15:27;94938.00;;;0.50
41940;BMP180;23057;48.554;14.454;2022-12-18T16:17:58;94938.00;;;0.40
41940;BMP180;23057;48.554;14.454;2022-12-18T16:20:29;94936.00;;;0.40
41940;BMP180;23057;48.554;14.454;2022-12-18T16:22:59;94949.00;;;0.40
41940;BMP180;23057;48.554;14.454;2022-12-18T16:25:31;94934.00;;;0.40
41940;BMP180;23057;48.554;14.454;2022-12-18T16:28:02;94936.00;;;0.40
41940;BMP180;23057;48.554;14.454;2022-12-18T16:30:33;94938.00;;;0.40
41940;BMP180;23057;48.554;14.454;2022-12-18T16:33:04;94925.00;;;0.30
41940;BMP180;23057;48.554;14.454;2022-12-18T16:35:35;94938.00;;;0.30
41940;BMP180;23057;48.554;14.454;2022-12-18T16:38:07;94946.00;;;0.30